sensor_id;sensor_type;location;lat;lon;timestamp;temperature;humidity
14471;DHT22;7321;50.802;4.336;2022-12-08T00:01:39;6.90;99.90
14471;DHT22;7321;50.802;4.336;2022-12-08T00:04:06;6.90;99.90
14471;DHT22;7321;50.802;4.336;2022-12-08T00:06:38;6.80;99.90
14471;DHT22;7321;50.802;4.336;2022-12-08T00:09:29;6.80;99.90
14471;DHT22;7321;50.802;4.336;2022-12-08T00:12:07;6.80;99.90
14471;DHT22;7321;50.802;4.336;2022-12-08T00:14:36;6.80;99.90
14471;DHT22;7321;50.802;4.336;2022-12-08T00:17:07;6.70;99.90
14471;DHT22;7321;50.802;4.336;2022-12-08T00:19:36;6.60;99.90
14471;DHT22;7321;50.802;4.336;2022-12-08T00:22:05;6.60;99.90
14471;DHT22;7321;50.802;4.336;2022-12-08T00:24:35;6.70;99.90
14471;DHT22;7321;50.802;4.336;2022-12-08T00:27:11;6.60;99.90
14471;DHT22;7321;50.802;4.336;2022-12-08T00:29:37;6.60;99.90
14471;DHT22;7321;50.802;4.336;2022-12-08T00:32:04;6.50;99.90
14471;DHT22;7321;50.802;4.336;2022-12-08T00:34:31;6.50;99.90
14471;DHT22;7321;50.802;4.336;2022-12-08T00:36:57;6.50;99.90
14471;DHT22;7321;50.802;4.336;2022-12-08T00:39:23;6.40;99.90
14471;DHT22;7321;50.802;4.336;2022-12-08T00:41:49;6.30;99.90
14471;DHT22;7321;50.802;4.336;2022-12-08T00:44:33;6.40;99.90
14471;DHT22;7321;50.802;4.336;2022-12-08T00:46:59;6.40;99.90
14471;DHT22;7321;50.802;4.336;2022-12-08T00:49:25;6.40;99.90
14471;DHT22;7321;50.802;4.336;2022-12-08T00:51:51;6.20;99.90
14471;DHT22;7321;50.802;4.336;2022-12-08T00:54:17;6.20;99.90
14471;DHT22;7321;50.802;4.336;2022-12-08T00:56:43;6.30;99.90
14471;DHT22;7321;50.802;4.336;2022-12-08T00:59:13;6.20;99.90
14471;DHT22;7321;50.802;4.336;2022-12-08T01:01:39;6.20;99.90
14471;DHT22;7321;50.802;4.336;2022-12-08T01:04:07;6.20;99.90
14471;DHT22;7321;50.802;4.336;2022-12-08T01:06:37;6.30;99.90
14471;DHT22;7321;50.802;4.336;2022-12-08T01:09:04;6.30;99.90
14471;DHT22;7321;50.802;4.336;2022-12-08T01:11:31;6.00;99.90
14471;DHT22;7321;50.802;4.336;2022-12-08T01:13:57;6.00;99.90
14471;DHT22;7321;50.802;4.336;2022-12-08T01:16:25;5.90;99.90
14471;DHT22;7321;50.802;4.336;2022-12-08T01:18:51;5.90;99.90
14471;DHT22;7321;50.802;4.336;2022-12-08T01:21:18;5.90;99.90
14471;DHT22;7321;50.802;4.336;2022-12-08T01:23:44;5.90;99.90
14471;DHT22;7321;50.802;4.336;2022-12-08T01:26:12;5.80;99.90
14471;DHT22;7321;50.802;4.336;2022-12-08T01:28:39;5.90;99.90
14471;DHT22;7321;50.802;4.336;2022-12-08T01:31:14;5.90;99.90
14471;DHT22;7321;50.802;4.336;2022-12-08T01:33:40;6.00;99.90
14471;DHT22;7321;50.802;4.336;2022-12-08T01:36:07;6.00;99.90
14471;DHT22;7321;50.802;4.336;2022-12-08T01:38:33;6.00;99.90
14471;DHT22;7321;50.802;4.336;2022-12-08T01:40:58;6.00;99.90
14471;DHT22;7321;50.802;4.336;2022-12-08T01:43:24;6.10;99.90
14471;DHT22;7321;50.802;4.336;2022-12-08T01:45:50;6.00;99.90
14471;DHT22;7321;50.802;4.336;2022-12-08T01:48:25;6.00;99.90
14471;DHT22;7321;50.802;4.336;2022-12-08T01:50:53;6.00;99.90
14471;DHT22;7321;50.802;4.336;2022-12-08T01:53:26;6.00;99.90
14471;DHT22;7321;50.802;4.336;2022-12-08T01:55:57;6.00;99.90
14471;DHT22;7321;50.802;4.336;2022-12-08T01:58:40;5.90;99.90
14471;DHT22;7321;50.802;4.336;2022-12-08T02:01:08;5.90;99.90
14471;DHT22;7321;50.802;4.336;2022-12-08T02:04:11;5.80;99.90
14471;DHT22;7321;50.802;4.336;2022-12-08T02:06:36;5.70;99.90
14471;DHT22;7321;50.802;4.336;2022-12-08T02:09:04;5.80;99.90
14471;DHT22;7321;50.802;4.336;2022-12-08T02:11:30;5.80;99.90
14471;DHT22;7321;50.802;4.336;2022-12-08T02:13:57;5.80;99.90
14471;DHT22;7321;50.802;4.336;2022-12-08T02:22:57;5.80;99.90
14471;DHT22;7321;50.802;4.336;2022-12-08T02:33:45;5.60;99.90
14471;DHT22;7321;50.802;4.336;2022-12-08T02:44:51;5.70;99.90
14471;DHT22;7321;50.802;4.336;2022-12-08T02:47:18;5.50;99.90
14471;DHT22;7321;50.802;4.336;2022-12-08T02:49:45;5.50;99.90
14471;DHT22;7321;50.802;4.336;2022-12-08T03:00:22;5.50;99.90
14471;DHT22;7321;50.802;4.336;2022-12-08T03:09:02;5.50;99.90
14471;DHT22;7321;50.802;4.336;2022-12-08T03:14:03;5.70;99.90
14471;DHT22;7321;50.802;4.336;2022-12-08T03:16:31;5.50;99.90
14471;DHT22;7321;50.802;4.336;2022-12-08T03:19:14;5.40;99.90
14471;DHT22;7321;50.802;4.336;2022-12-08T03:21:43;5.40;99.90
14471;DHT22;7321;50.802;4.336;2022-12-08T03:24:11;5.50;99.90
14471;DHT22;7321;50.802;4.336;2022-12-08T03:26:47;5.60;99.90
14471;DHT22;7321;50.802;4.336;2022-12-08T03:29:15;5.80;99.90
14471;DHT22;7321;50.802;4.336;2022-12-08T03:31:54;5.70;99.90
14471;DHT22;7321;50.802;4.336;2022-12-08T03:34:23;5.80;99.90
14471;DHT22;7321;50.802;4.336;2022-12-08T03:36:50;5.80;99.90
14471;DHT22;7321;50.802;4.336;2022-12-08T03:39:16;5.70;99.90
14471;DHT22;7321;50.802;4.336;2022-12-08T03:41:42;5.60;99.90
14471;DHT22;7321;50.802;4.336;2022-12-08T03:44:08;5.70;99.90
14471;DHT22;7321;50.802;4.336;2022-12-08T03:46:34;5.80;99.90
14471;DHT22;7321;50.802;4.336;2022-12-08T03:49:00;5.80;99.90
14471;DHT22;7321;50.802;4.336;2022-12-08T03:51:25;5.70;99.90
14471;DHT22;7321;50.802;4.336;2022-12-08T03:53:51;5.80;99.90
14471;DHT22;7321;50.802;4.336;2022-12-08T03:56:33;5.80;99.90
14471;DHT22;7321;50.802;4.336;2022-12-08T03:58:59;5.90;99.90
14471;DHT22;7321;50.802;4.336;2022-12-08T04:01:25;5.90;99.90
14471;DHT22;7321;50.802;4.336;2022-12-08T04:03:51;5.90;99.90
14471;DHT22;7321;50.802;4.336;2022-12-08T04:06:16;5.90;99.90
14471;DHT22;7321;50.802;4.336;2022-12-08T04:08:42;5.90;99.90
14471;DHT22;7321;50.802;4.336;2022-12-08T04:11:12;5.90;99.90
14471;DHT22;7321;50.802;4.336;2022-12-08T04:13:39;5.90;99.90
14471;DHT22;7321;50.802;4.336;2022-12-08T04:16:05;5.90;99.90
14471;DHT22;7321;50.802;4.336;2022-12-08T04:18:33;6.00;99.90
14471;DHT22;7321;50.802;4.336;2022-12-08T04:20:59;6.00;99.90
14471;DHT22;7321;50.802;4.336;2022-12-08T04:23:25;6.00;99.90
14471;DHT22;7321;50.802;4.336;2022-12-08T04:25:51;5.80;99.90
14471;DHT22;7321;50.802;4.336;2022-12-08T04:28:17;5.80;99.90
14471;DHT22;7321;50.802;4.336;2022-12-08T04:30:43;5.80;99.90
14471;DHT22;7321;50.802;4.336;2022-12-08T04:33:09;5.80;99.90
14471;DHT22;7321;50.802;4.336;2022-12-08T04:35:35;5.70;99.90
14471;DHT22;7321;50.802;4.336;2022-12-08T04:38:01;5.70;99.90
14471;DHT22;7321;50.802;4.336;2022-12-08T04:40:27;5.70;99.90
14471;DHT22;7321;50.802;4.336;2022-12-08T04:42:53;5.60;99.90
14471;DHT22;7321;50.802;4.336;2022-12-08T04:45:19;5.60;99.90
14471;DHT22;7321;50.802;4.336;2022-12-08T04:47:45;5.60;99.90
14471;DHT22;7321;50.802;4.336;2022-12-08T04:50:11;5.60;99.90
14471;DHT22;7321;50.802;4.336;2022-12-08T04:52:38;5.60;99.90
14471;DHT22;7321;50.802;4.336;2022-12-08T04:55:04;5.50;99.90
14471;DHT22;7321;50.802;4.336;2022-12-08T04:57:30;5.50;99.90
14471;DHT22;7321;50.802;4.336;2022-12-08T04:59:56;5.60;99.90
14471;DHT22;7321;50.802;4.336;2022-12-08T05:02:22;5.40;99.90
14471;DHT22;7321;50.802;4.336;2022-12-08T05:04:48;5.40;99.90
14471;DHT22;7321;50.802;4.336;2022-12-08T05:07:13;5.40;99.90
14471;DHT22;7321;50.802;4.336;2022-12-08T05:09:39;5.50;99.90
14471;DHT22;7321;50.802;4.336;2022-12-08T05:12:05;5.50;99.90
14471;DHT22;7321;50.802;4.336;2022-12-08T05:14:31;5.50;99.90
14471;DHT22;7321;50.802;4.336;2022-12-08T05:16:57;5.40;99.90
14471;DHT22;7321;50.802;4.336;2022-12-08T05:19:23;5.40;99.90
14471;DHT22;7321;50.802;4.336;2022-12-08T05:21:49;5.40;99.90
14471;DHT22;7321;50.802;4.336;2022-12-08T05:24:15;5.50;99.90
14471;DHT22;7321;50.802;4.336;2022-12-08T05:26:41;5.60;99.90
14471;DHT22;7321;50.802;4.336;2022-12-08T05:29:06;5.50;99.90
14471;DHT22;7321;50.802;4.336;2022-12-08T05:31:32;5.30;99.90
14471;DHT22;7321;50.802;4.336;2022-12-08T05:33:58;5.30;99.90
14471;DHT22;7321;50.802;4.336;2022-12-08T05:36:24;5.30;99.90
14471;DHT22;7321;50.802;4.336;2022-12-08T05:38:50;5.30;99.90
14471;DHT22;7321;50.802;4.336;2022-12-08T05:41:18;5.30;99.90
14471;DHT22;7321;50.802;4.336;2022-12-08T05:43:45;5.20;99.90
14471;DHT22;7321;50.802;4.336;2022-12-08T05:46:11;5.10;99.90
14471;DHT22;7321;50.802;4.336;2022-12-08T05:48:37;5.10;99.90
14471;DHT22;7321;50.802;4.336;2022-12-08T05:51:05;5.10;99.90
14471;DHT22;7321;50.802;4.336;2022-12-08T05:53:32;5.10;99.90
14471;DHT22;7321;50.802;4.336;2022-12-08T05:55:57;5.10;99.90
14471;DHT22;7321;50.802;4.336;2022-12-08T05:58:23;5.10;99.90
14471;DHT22;7321;50.802;4.336;2022-12-08T06:00:49;5.20;99.90
14471;DHT22;7321;50.802;4.336;2022-12-08T06:03:17;5.10;99.90
14471;DHT22;7321;50.802;4.336;2022-12-08T06:05:45;5.10;99.90
14471;DHT22;7321;50.802;4.336;2022-12-08T06:08:11;5.10;99.90
14471;DHT22;7321;50.802;4.336;2022-12-08T06:10:39;5.10;99.90
14471;DHT22;7321;50.802;4.336;2022-12-08T06:13:05;5.10;99.90
14471;DHT22;7321;50.802;4.336;2022-12-08T06:15:33;5.00;99.90
14471;DHT22;7321;50.802;4.336;2022-12-08T06:17:59;5.00;99.90
14471;DHT22;7321;50.802;4.336;2022-12-08T06:20:25;5.00;99.90
14471;DHT22;7321;50.802;4.336;2022-12-08T06:22:51;5.00;99.90
14471;DHT22;7321;50.802;4.336;2022-12-08T06:25:16;5.10;99.90
14471;DHT22;7321;50.802;4.336;2022-12-08T06:27:42;4.90;99.90
14471;DHT22;7321;50.802;4.336;2022-12-08T06:30:08;5.00;99.90
14471;DHT22;7321;50.802;4.336;2022-12-08T06:32:35;4.90;99.90
14471;DHT22;7321;50.802;4.336;2022-12-08T06:35:01;4.90;99.90
14471;DHT22;7321;50.802;4.336;2022-12-08T06:37:26;4.90;99.90
14471;DHT22;7321;50.802;4.336;2022-12-08T06:39:52;4.90;99.90
14471;DHT22;7321;50.802;4.336;2022-12-08T06:42:18;5.00;99.90
14471;DHT22;7321;50.802;4.336;2022-12-08T06:45:02;4.90;99.90
14471;DHT22;7321;50.802;4.336;2022-12-08T06:47:28;5.00;99.90
14471;DHT22;7321;50.802;4.336;2022-12-08T06:49:54;5.10;99.90
14471;DHT22;7321;50.802;4.336;2022-12-08T06:52:20;5.10;99.90
14471;DHT22;7321;50.802;4.336;2022-12-08T06:54:45;5.20;99.90
14471;DHT22;7321;50.802;4.336;2022-12-08T06:57:11;5.30;99.90
14471;DHT22;7321;50.802;4.336;2022-12-08T06:59:38;5.30;99.90
14471;DHT22;7321;50.802;4.336;2022-12-08T07:02:04;5.30;99.90
14471;DHT22;7321;50.802;4.336;2022-12-08T07:04:29;5.30;99.90
14471;DHT22;7321;50.802;4.336;2022-12-08T07:06:55;5.30;99.90
14471;DHT22;7321;50.802;4.336;2022-12-08T07:09:21;5.20;99.90
14471;DHT22;7321;50.802;4.336;2022-12-08T07:11:47;5.30;99.90
14471;DHT22;7321;50.802;4.336;2022-12-08T07:14:13;5.50;99.90
14471;DHT22;7321;50.802;4.336;2022-12-08T07:16:38;5.50;99.90
14471;DHT22;7321;50.802;4.336;2022-12-08T07:19:05;5.50;99.90
14471;DHT22;7321;50.802;4.336;2022-12-08T07:21:30;5.50;99.90
14471;DHT22;7321;50.802;4.336;2022-12-08T07:23:56;5.50;99.90
14471;DHT22;7321;50.802;4.336;2022-12-08T07:26:22;5.60;99.90
14471;DHT22;7321;50.802;4.336;2022-12-08T07:28:48;5.50;99.90
14471;DHT22;7321;50.802;4.336;2022-12-08T07:31:19;5.50;99.90
14471;DHT22;7321;50.802;4.336;2022-12-08T07:33:45;5.60;99.90
14471;DHT22;7321;50.802;4.336;2022-12-08T07:36:11;5.60;99.90
14471;DHT22;7321;50.802;4.336;2022-12-08T07:38:37;5.60;99.90
14471;DHT22;7321;50.802;4.336;2022-12-08T07:41:03;5.40;99.90
14471;DHT22;7321;50.802;4.336;2022-12-08T07:43:29;5.40;99.90
14471;DHT22;7321;50.802;4.336;2022-12-08T07:45:55;5.40;99.90
14471;DHT22;7321;50.802;4.336;2022-12-08T07:48:20;5.40;99.90
14471;DHT22;7321;50.802;4.336;2022-12-08T07:50:46;5.40;99.90
14471;DHT22;7321;50.802;4.336;2022-12-08T07:53:14;5.40;99.90
14471;DHT22;7321;50.802;4.336;2022-12-08T07:55:43;5.50;99.90
14471;DHT22;7321;50.802;4.336;2022-12-08T07:58:10;5.60;99.90
14471;DHT22;7321;50.802;4.336;2022-12-08T08:00:36;5.80;99.90
14471;DHT22;7321;50.802;4.336;2022-12-08T08:03:02;5.70;99.90
14471;DHT22;7321;50.802;4.336;2022-12-08T08:05:28;5.80;99.90
14471;DHT22;7321;50.802;4.336;2022-12-08T08:07:54;5.70;99.90
14471;DHT22;7321;50.802;4.336;2022-12-08T08:10:20;5.80;99.90
14471;DHT22;7321;50.802;4.336;2022-12-08T08:12:46;5.90;99.90
14471;DHT22;7321;50.802;4.336;2022-12-08T08:15:12;5.90;99.90
14471;DHT22;7321;50.802;4.336;2022-12-08T08:17:38;5.90;99.90
14471;DHT22;7321;50.802;4.336;2022-12-08T08:20:05;5.90;99.90
14471;DHT22;7321;50.802;4.336;2022-12-08T08:22:32;5.90;99.90
14471;DHT22;7321;50.802;4.336;2022-12-08T08:25:00;5.80;99.90
14471;DHT22;7321;50.802;4.336;2022-12-08T08:27:25;5.80;99.90
14471;DHT22;7321;50.802;4.336;2022-12-08T08:29:52;5.80;99.90
14471;DHT22;7321;50.802;4.336;2022-12-08T08:32:18;5.90;99.90
14471;DHT22;7321;50.802;4.336;2022-12-08T08:34:47;5.90;99.90
14471;DHT22;7321;50.802;4.336;2022-12-08T08:37:13;5.80;99.90
14471;DHT22;7321;50.802;4.336;2022-12-08T08:39:38;5.60;99.90
14471;DHT22;7321;50.802;4.336;2022-12-08T08:42:04;5.70;99.90
14471;DHT22;7321;50.802;4.336;2022-12-08T08:44:30;5.70;99.90
14471;DHT22;7321;50.802;4.336;2022-12-08T08:46:55;5.70;99.90
14471;DHT22;7321;50.802;4.336;2022-12-08T08:49:21;5.80;99.90
14471;DHT22;7321;50.802;4.336;2022-12-08T08:51:47;5.80;99.90
14471;DHT22;7321;50.802;4.336;2022-12-08T08:54:13;5.90;99.90
14471;DHT22;7321;50.802;4.336;2022-12-08T08:56:39;6.00;99.90
14471;DHT22;7321;50.802;4.336;2022-12-08T08:59:05;5.90;99.90
14471;DHT22;7321;50.802;4.336;2022-12-08T09:01:31;5.90;99.90
14471;DHT22;7321;50.802;4.336;2022-12-08T09:03:56;6.00;99.90
14471;DHT22;7321;50.802;4.336;2022-12-08T09:06:22;5.90;99.90
14471;DHT22;7321;50.802;4.336;2022-12-08T09:08:49;5.90;99.90
14471;DHT22;7321;50.802;4.336;2022-12-08T09:11:15;6.00;99.90
14471;DHT22;7321;50.802;4.336;2022-12-08T09:13:43;5.70;99.90
14471;DHT22;7321;50.802;4.336;2022-12-08T09:16:10;5.70;99.90
14471;DHT22;7321;50.802;4.336;2022-12-08T09:18:36;5.70;99.90
14471;DHT22;7321;50.802;4.336;2022-12-08T09:21:04;5.90;99.90
14471;DHT22;7321;50.802;4.336;2022-12-08T09:23:30;5.90;99.90
14471;DHT22;7321;50.802;4.336;2022-12-08T09:25:56;5.90;99.90
14471;DHT22;7321;50.802;4.336;2022-12-08T09:28:22;6.10;99.90
14471;DHT22;7321;50.802;4.336;2022-12-08T09:30:50;5.90;99.90
14471;DHT22;7321;50.802;4.336;2022-12-08T09:33:16;5.90;99.90
14471;DHT22;7321;50.802;4.336;2022-12-08T09:35:41;5.70;99.90
14471;DHT22;7321;50.802;4.336;2022-12-08T09:38:07;5.80;99.90
14471;DHT22;7321;50.802;4.336;2022-12-08T09:40:39;5.80;99.90
14471;DHT22;7321;50.802;4.336;2022-12-08T09:46:06;5.80;99.90
14471;DHT22;7321;50.802;4.336;2022-12-08T09:48:36;5.90;99.90
14471;DHT22;7321;50.802;4.336;2022-12-08T09:51:04;5.80;99.90
14471;DHT22;7321;50.802;4.336;2022-12-08T09:53:41;5.90;99.90
14471;DHT22;7321;50.802;4.336;2022-12-08T09:56:13;6.00;99.90
14471;DHT22;7321;50.802;4.336;2022-12-08T10:01:13;6.10;99.90
14471;DHT22;7321;50.802;4.336;2022-12-08T10:03:39;6.00;99.90
14471;DHT22;7321;50.802;4.336;2022-12-08T10:11:43;6.10;99.90
14471;DHT22;7321;50.802;4.336;2022-12-08T10:14:21;6.20;99.90
14471;DHT22;7321;50.802;4.336;2022-12-08T10:16:49;6.10;99.90
14471;DHT22;7321;50.802;4.336;2022-12-08T10:21:44;6.40;99.90
14471;DHT22;7321;50.802;4.336;2022-12-08T10:24:30;6.30;99.90
14471;DHT22;7321;50.802;4.336;2022-12-08T10:26:58;6.20;99.90
14471;DHT22;7321;50.802;4.336;2022-12-08T10:29:25;6.30;99.90
14471;DHT22;7321;50.802;4.336;2022-12-08T10:31:50;6.30;99.90
14471;DHT22;7321;50.802;4.336;2022-12-08T10:34:23;6.40;99.90
14471;DHT22;7321;50.802;4.336;2022-12-08T10:36:51;6.50;99.90
14471;DHT22;7321;50.802;4.336;2022-12-08T10:39:36;6.50;99.90
14471;DHT22;7321;50.802;4.336;2022-12-08T10:47:39;6.70;99.90
14471;DHT22;7321;50.802;4.336;2022-12-08T10:52:44;6.60;99.90
14471;DHT22;7321;50.802;4.336;2022-12-08T10:55:15;6.70;99.90
14471;DHT22;7321;50.802;4.336;2022-12-08T10:57:44;6.60;99.90
14471;DHT22;7321;50.802;4.336;2022-12-08T11:00:15;6.60;99.90
14471;DHT22;7321;50.802;4.336;2022-12-08T11:02:58;6.50;99.90
14471;DHT22;7321;50.802;4.336;2022-12-08T11:05:34;6.40;99.90
14471;DHT22;7321;50.802;4.336;2022-12-08T11:08:02;6.50;99.90
14471;DHT22;7321;50.802;4.336;2022-12-08T11:10:35;6.40;99.90
14471;DHT22;7321;50.802;4.336;2022-12-08T11:13:22;6.40;99.90
14471;DHT22;7321;50.802;4.336;2022-12-08T11:15:54;6.40;99.90
14471;DHT22;7321;50.802;4.336;2022-12-08T11:18:37;6.40;99.90
14471;DHT22;7321;50.802;4.336;2022-12-08T11:21:13;6.50;99.90
14471;DHT22;7321;50.802;4.336;2022-12-08T11:23:41;6.40;99.90
14471;DHT22;7321;50.802;4.336;2022-12-08T11:26:31;6.30;99.90
14471;DHT22;7321;50.802;4.336;2022-12-08T11:28:57;6.40;99.90
14471;DHT22;7321;50.802;4.336;2022-12-08T11:31:37;6.40;99.90
14471;DHT22;7321;50.802;4.336;2022-12-08T11:34:31;6.40;99.90
14471;DHT22;7321;50.802;4.336;2022-12-08T11:36:58;6.50;99.90
14471;DHT22;7321;50.802;4.336;2022-12-08T11:39:30;6.30;99.90
14471;DHT22;7321;50.802;4.336;2022-12-08T11:42:00;6.30;99.90
14471;DHT22;7321;50.802;4.336;2022-12-08T11:44:57;6.40;99.90
14471;DHT22;7321;50.802;4.336;2022-12-08T11:50:30;6.60;99.90
14471;DHT22;7321;50.802;4.336;2022-12-08T11:53:05;6.70;99.90
14471;DHT22;7321;50.802;4.336;2022-12-08T11:55:40;6.50;99.90
14471;DHT22;7321;50.802;4.336;2022-12-08T11:58:33;6.60;99.90
14471;DHT22;7321;50.802;4.336;2022-12-08T12:01:00;6.80;99.90
14471;DHT22;7321;50.802;4.336;2022-12-08T12:03:32;6.80;99.90
14471;DHT22;7321;50.802;4.336;2022-12-08T12:19:48;7.50;99.90
14471;DHT22;7321;50.802;4.336;2022-12-08T12:22:18;7.70;99.90
14471;DHT22;7321;50.802;4.336;2022-12-08T12:24:47;7.90;99.90
14471;DHT22;7321;50.802;4.336;2022-12-08T12:27:26;7.90;99.90
14471;DHT22;7321;50.802;4.336;2022-12-08T12:29:56;8.00;99.90
14471;DHT22;7321;50.802;4.336;2022-12-08T12:32:24;8.00;99.90
14471;DHT22;7321;50.802;4.336;2022-12-08T12:34:56;8.10;99.90
14471;DHT22;7321;50.802;4.336;2022-12-08T12:37:26;8.00;99.90
14471;DHT22;7321;50.802;4.336;2022-12-08T12:40:03;8.10;99.90
14471;DHT22;7321;50.802;4.336;2022-12-08T12:56:07;8.10;99.90
14471;DHT22;7321;50.802;4.336;2022-12-08T12:58:36;8.10;99.90
14471;DHT22;7321;50.802;4.336;2022-12-08T13:03:41;8.20;99.90
14471;DHT22;7321;50.802;4.336;2022-12-08T13:06:09;8.20;99.90
14471;DHT22;7321;50.802;4.336;2022-12-08T13:08:39;8.10;99.90
14471;DHT22;7321;50.802;4.336;2022-12-08T13:11:08;8.20;99.90
14471;DHT22;7321;50.802;4.336;2022-12-08T13:13:54;8.10;99.90
14471;DHT22;7321;50.802;4.336;2022-12-08T13:16:25;8.10;99.90
14471;DHT22;7321;50.802;4.336;2022-12-08T13:18:57;8.00;99.90
14471;DHT22;7321;50.802;4.336;2022-12-08T13:21:25;8.00;99.90
14471;DHT22;7321;50.802;4.336;2022-12-08T13:24:13;7.90;99.90
14471;DHT22;7321;50.802;4.336;2022-12-08T13:29:31;8.00;99.90
14471;DHT22;7321;50.802;4.336;2022-12-08T13:32:06;8.00;99.90
14471;DHT22;7321;50.802;4.336;2022-12-08T13:37:27;8.10;99.90
14471;DHT22;7321;50.802;4.336;2022-12-08T13:40:04;8.10;99.90
14471;DHT22;7321;50.802;4.336;2022-12-08T13:45:24;8.00;99.90
14471;DHT22;7321;50.802;4.336;2022-12-08T13:48:43;8.00;99.90
14471;DHT22;7321;50.802;4.336;2022-12-08T13:53:37;8.10;99.90
14471;DHT22;7321;50.802;4.336;2022-12-08T13:56:06;8.10;99.90
14471;DHT22;7321;50.802;4.336;2022-12-08T13:58:36;8.00;99.90
14471;DHT22;7321;50.802;4.336;2022-12-08T14:01:23;7.90;99.90
14471;DHT22;7321;50.802;4.336;2022-12-08T14:03:55;7.90;99.90
14471;DHT22;7321;50.802;4.336;2022-12-08T14:06:39;8.00;99.90
14471;DHT22;7321;50.802;4.336;2022-12-08T14:09:16;8.00;99.90
14471;DHT22;7321;50.802;4.336;2022-12-08T14:11:59;8.00;99.90
14471;DHT22;7321;50.802;4.336;2022-12-08T14:14:33;8.00;99.90
14471;DHT22;7321;50.802;4.336;2022-12-08T14:17:04;7.90;99.90
14471;DHT22;7321;50.802;4.336;2022-12-08T14:19:32;7.90;99.90
14471;DHT22;7321;50.802;4.336;2022-12-08T14:24:26;7.80;99.90
14471;DHT22;7321;50.802;4.336;2022-12-08T14:26:57;7.90;99.90
14471;DHT22;7321;50.802;4.336;2022-12-08T14:29:40;7.80;99.90
14471;DHT22;7321;50.802;4.336;2022-12-08T14:32:37;7.60;99.90
14471;DHT22;7321;50.802;4.336;2022-12-08T14:37:36;7.70;99.90
14471;DHT22;7321;50.802;4.336;2022-12-08T14:40:31;7.70;99.90
14471;DHT22;7321;50.802;4.336;2022-12-08T15:01:43;7.50;99.90
14471;DHT22;7321;50.802;4.336;2022-12-08T15:06:58;7.60;99.90
14471;DHT22;7321;50.802;4.336;2022-12-08T15:10:06;7.50;99.90
14471;DHT22;7321;50.802;4.336;2022-12-08T15:12:27;7.50;99.90
14471;DHT22;7321;50.802;4.336;2022-12-08T15:17:44;7.50;99.90
14471;DHT22;7321;50.802;4.336;2022-12-08T15:20:47;7.40;99.90
14471;DHT22;7321;50.802;4.336;2022-12-08T15:25:45;7.20;99.90
14471;DHT22;7321;50.802;4.336;2022-12-08T15:28:16;7.30;99.90
14471;DHT22;7321;50.802;4.336;2022-12-08T15:30:42;7.30;99.90
14471;DHT22;7321;50.802;4.336;2022-12-08T15:33:08;7.50;99.90
14471;DHT22;7321;50.802;4.336;2022-12-08T15:35:34;7.60;99.90
14471;DHT22;7321;50.802;4.336;2022-12-08T15:37:59;7.50;99.90
14471;DHT22;7321;50.802;4.336;2022-12-08T15:40:28;7.50;99.90
14471;DHT22;7321;50.802;4.336;2022-12-08T15:42:54;7.60;99.90
14471;DHT22;7321;50.802;4.336;2022-12-08T15:45:27;7.50;99.90
14471;DHT22;7321;50.802;4.336;2022-12-08T15:47:55;7.40;99.90
14471;DHT22;7321;50.802;4.336;2022-12-08T15:50:22;7.30;99.90
14471;DHT22;7321;50.802;4.336;2022-12-08T15:52:49;7.30;99.90
14471;DHT22;7321;50.802;4.336;2022-12-08T15:55:18;7.10;99.90
14471;DHT22;7321;50.802;4.336;2022-12-08T15:57:46;7.10;99.90
14471;DHT22;7321;50.802;4.336;2022-12-08T16:02:51;6.90;99.90
14471;DHT22;7321;50.802;4.336;2022-12-08T16:05:17;7.10;99.90
14471;DHT22;7321;50.802;4.336;2022-12-08T16:07:43;7.00;99.90
14471;DHT22;7321;50.802;4.336;2022-12-08T16:10:21;6.90;99.90
14471;DHT22;7321;50.802;4.336;2022-12-08T16:12:47;6.90;99.90
14471;DHT22;7321;50.802;4.336;2022-12-08T16:15:39;6.80;99.90
14471;DHT22;7321;50.802;4.336;2022-12-08T16:18:06;6.80;99.90
14471;DHT22;7321;50.802;4.336;2022-12-08T16:20:32;6.90;99.90
14471;DHT22;7321;50.802;4.336;2022-12-08T16:22:58;6.80;99.90
14471;DHT22;7321;50.802;4.336;2022-12-08T16:25:24;6.80;99.90
14471;DHT22;7321;50.802;4.336;2022-12-08T16:27:53;6.70;99.90
14471;DHT22;7321;50.802;4.336;2022-12-08T16:30:19;6.70;99.90
14471;DHT22;7321;50.802;4.336;2022-12-08T16:32:44;6.70;99.90
14471;DHT22;7321;50.802;4.336;2022-12-08T16:35:11;6.70;99.90
14471;DHT22;7321;50.802;4.336;2022-12-08T16:37:38;6.70;99.90
14471;DHT22;7321;50.802;4.336;2022-12-08T16:40:04;6.70;99.90
14471;DHT22;7321;50.802;4.336;2022-12-08T16:42:34;6.60;99.90
14471;DHT22;7321;50.802;4.336;2022-12-08T16:45:20;6.70;99.90
14471;DHT22;7321;50.802;4.336;2022-12-08T16:47:55;6.70;99.90
14471;DHT22;7321;50.802;4.336;2022-12-08T16:50:24;6.60;99.90
14471;DHT22;7321;50.802;4.336;2022-12-08T16:53:05;6.60;99.90
14471;DHT22;7321;50.802;4.336;2022-12-08T16:55:32;6.50;99.90
14471;DHT22;7321;50.802;4.336;2022-12-08T16:57:59;6.50;99.90
14471;DHT22;7321;50.802;4.336;2022-12-08T17:00:26;6.40;99.90
14471;DHT22;7321;50.802;4.336;2022-12-08T17:02:53;6.50;99.90
14471;DHT22;7321;50.802;4.336;2022-12-08T17:05:21;6.50;99.90
14471;DHT22;7321;50.802;4.336;2022-12-08T17:07:49;6.60;99.90
14471;DHT22;7321;50.802;4.336;2022-12-08T17:10:27;6.50;99.90
14471;DHT22;7321;50.802;4.336;2022-12-08T17:12:54;6.60;99.90
14471;DHT22;7321;50.802;4.336;2022-12-08T17:15:22;6.60;99.90
14471;DHT22;7321;50.802;4.336;2022-12-08T17:17:49;6.60;99.90
14471;DHT22;7321;50.802;4.336;2022-12-08T17:20:17;6.60;99.90
14471;DHT22;7321;50.802;4.336;2022-12-08T17:22:44;6.50;99.90
14471;DHT22;7321;50.802;4.336;2022-12-08T17:25:10;6.50;99.90
14471;DHT22;7321;50.802;4.336;2022-12-08T17:27:37;6.60;99.90
14471;DHT22;7321;50.802;4.336;2022-12-08T17:30:08;6.60;99.90
14471;DHT22;7321;50.802;4.336;2022-12-08T17:32:37;6.70;99.90
14471;DHT22;7321;50.802;4.336;2022-12-08T17:35:03;6.70;99.90
14471;DHT22;7321;50.802;4.336;2022-12-08T17:37:29;6.60;99.90
14471;DHT22;7321;50.802;4.336;2022-12-08T17:39:55;6.40;99.90
14471;DHT22;7321;50.802;4.336;2022-12-08T17:42:20;6.40;99.90
14471;DHT22;7321;50.802;4.336;2022-12-08T17:44:51;6.30;99.90
14471;DHT22;7321;50.802;4.336;2022-12-08T17:47:17;6.30;99.90
14471;DHT22;7321;50.802;4.336;2022-12-08T17:49:42;6.30;99.90
14471;DHT22;7321;50.802;4.336;2022-12-08T17:52:09;6.30;99.90
14471;DHT22;7321;50.802;4.336;2022-12-08T17:54:38;6.20;99.90
14471;DHT22;7321;50.802;4.336;2022-12-08T17:57:04;6.10;99.90
14471;DHT22;7321;50.802;4.336;2022-12-08T17:59:30;6.00;99.90
14471;DHT22;7321;50.802;4.336;2022-12-08T18:01:56;6.00;99.90
14471;DHT22;7321;50.802;4.336;2022-12-08T18:04:24;6.00;99.90
14471;DHT22;7321;50.802;4.336;2022-12-08T18:06:50;5.90;99.90
14471;DHT22;7321;50.802;4.336;2022-12-08T18:09:16;5.90;99.90
14471;DHT22;7321;50.802;4.336;2022-12-08T18:11:43;5.80;99.90
14471;DHT22;7321;50.802;4.336;2022-12-08T18:14:09;5.80;99.90
14471;DHT22;7321;50.802;4.336;2022-12-08T18:16:37;5.70;99.90
14471;DHT22;7321;50.802;4.336;2022-12-08T18:19:05;5.60;99.90
14471;DHT22;7321;50.802;4.336;2022-12-08T18:21:31;5.50;99.90
14471;DHT22;7321;50.802;4.336;2022-12-08T18:23:57;5.50;99.90
14471;DHT22;7321;50.802;4.336;2022-12-08T18:26:23;5.40;99.90
14471;DHT22;7321;50.802;4.336;2022-12-08T18:28:48;5.40;99.90
14471;DHT22;7321;50.802;4.336;2022-12-08T18:31:17;5.40;99.90
14471;DHT22;7321;50.802;4.336;2022-12-08T18:33:44;5.30;99.90
14471;DHT22;7321;50.802;4.336;2022-12-08T18:36:14;5.20;99.90